createdAt,value
2018-06-13T00:01:51.852Z,15.90
2018-06-13T00:04:19.464Z,15.90
2018-06-13T00:06:47.048Z,15.80
2018-06-13T00:09:14.667Z,15.80
2018-06-13T00:11:42.239Z,15.90
2018-06-13T00:14:09.828Z,15.70
2018-06-13T00:16:37.424Z,15.80
2018-06-13T00:19:05.075Z,15.90
2018-06-13T00:21:32.659Z,15.80
2018-06-13T00:24:00.273Z,15.70
2018-06-13T00:26:27.873Z,15.80
2018-06-13T00:28:55.484Z,15.90
2018-06-13T00:31:23.052Z,15.80
2018-06-13T00:33:50.665Z,16.00
2018-06-13T00:36:18.257Z,16.00
2018-06-13T00:38:45.825Z,16.00
2018-06-13T00:41:13.413Z,16.00
2018-06-13T00:46:08.500Z,15.80
2018-06-13T00:48:36.092Z,15.80
2018-06-13T00:51:03.704Z,15.90
2018-06-13T00:53:31.352Z,15.90
2018-06-13T00:56:10.370Z,16.00
2018-06-13T00:58:37.996Z,15.90
2018-06-13T01:01:05.577Z,15.90
2018-06-13T01:03:33.160Z,15.90
2018-06-13T01:06:00.720Z,16.00
2018-06-13T01:08:28.456Z,16.10
2018-06-13T01:10:57.056Z,16.20
2018-06-13T01:13:24.660Z,16.10
2018-06-13T01:15:52.232Z,16.10
2018-06-13T01:18:19.807Z,16.10
2018-06-13T01:20:47.416Z,16.10
2018-06-13T01:23:14.996Z,16.10
2018-06-13T01:25:43.593Z,16.00
2018-06-13T01:28:11.214Z,16.00
2018-06-13T01:30:38.823Z,16.00
2018-06-13T01:33:06.517Z,16.00
2018-06-13T01:35:34.109Z,16.10
2018-06-13T01:38:01.729Z,16.10
2018-06-13T01:40:29.345Z,16.20
2018-06-13T01:42:56.940Z,16.20
2018-06-13T01:45:25.585Z,16.30
2018-06-13T01:47:53.173Z,16.20
2018-06-13T01:50:20.757Z,16.00
2018-06-13T01:52:48.338Z,15.80
2018-06-13T01:55:15.897Z,15.70
2018-06-13T01:57:43.472Z,15.60
2018-06-13T02:00:11.057Z,15.70
2018-06-13T02:02:38.700Z,12.80
2018-06-13T02:05:06.285Z,15.80
2018-06-13T02:07:33.860Z,15.80
2018-06-13T02:10:01.433Z,15.70
2018-06-13T02:12:29.032Z,15.70
2018-06-13T02:14:56.596Z,15.70
2018-06-13T02:17:24.224Z,15.60
2018-06-13T02:19:51.804Z,15.60
2018-06-13T02:22:19.379Z,15.50
2018-06-13T02:24:46.941Z,15.60
2018-06-13T02:27:14.528Z,15.60
2018-06-13T02:29:42.109Z,15.60
2018-06-13T02:32:09.701Z,15.50
2018-06-13T02:34:37.332Z,15.50
2018-06-13T02:37:04.896Z,15.60
2018-06-13T02:39:32.520Z,15.60
2018-06-13T02:42:00.121Z,15.80
2018-06-13T02:44:27.769Z,15.80
2018-06-13T02:47:00.680Z,15.80
2018-06-13T02:49:28.260Z,15.80
2018-06-13T02:51:55.828Z,15.80
2018-06-13T02:54:23.428Z,15.90
2018-06-13T02:56:51.052Z,15.80
2018-06-13T02:59:18.697Z,15.70
2018-06-13T03:01:47.320Z,15.60
2018-06-13T03:04:14.908Z,15.50
2018-06-13T03:06:42.496Z,15.50
2018-06-13T03:09:10.063Z,15.50
2018-06-13T03:11:37.673Z,15.40
2018-06-13T03:14:05.284Z,15.50
2018-06-13T03:16:32.853Z,15.50
2018-06-13T03:19:00.460Z,15.50
2018-06-13T03:21:28.021Z,15.50
2018-06-13T03:23:55.601Z,15.50
2018-06-13T03:26:23.221Z,15.50
2018-06-13T03:28:50.824Z,15.50
2018-06-13T03:31:19.272Z,15.50
2018-06-13T03:33:46.882Z,15.50
2018-06-13T03:36:14.461Z,15.60
2018-06-13T03:38:42.148Z,15.80
2018-06-13T03:41:09.791Z,15.80
2018-06-13T03:46:05.888Z,15.90
2018-06-13T03:48:33.480Z,15.80
2018-06-13T03:51:01.117Z,15.70
2018-06-13T03:53:28.780Z,15.70
2018-06-13T03:55:56.365Z,15.60
2018-06-13T03:58:23.980Z,15.50
2018-06-13T04:00:51.589Z,15.40
2018-06-13T04:03:19.180Z,15.40
2018-06-13T04:05:46.782Z,15.50
2018-06-13T04:08:14.389Z,15.60
2018-06-13T04:10:41.961Z,15.50
2018-06-13T04:13:09.632Z,15.50
2018-06-13T04:15:37.372Z,15.90
2018-06-13T04:18:05.864Z,15.30
2018-06-13T04:20:33.644Z,15.30
2018-06-13T04:23:01.280Z,15.50
2018-06-13T04:25:28.841Z,15.40
2018-06-13T04:27:56.446Z,15.30
2018-06-13T04:30:24.021Z,15.10
2018-06-13T04:32:51.603Z,15.00
2018-06-13T04:35:19.218Z,14.80
2018-06-13T04:37:46.830Z,14.80
2018-06-13T04:40:14.400Z,15.00
2018-06-13T04:42:42.004Z,15.10
2018-06-13T04:45:09.576Z,15.00
2018-06-13T04:47:37.169Z,15.00
2018-06-13T04:50:04.752Z,14.90
2018-06-13T04:52:32.346Z,14.80
2018-06-13T04:54:59.928Z,14.70
2018-06-13T04:57:27.506Z,14.70
2018-06-13T04:59:55.089Z,14.90
2018-06-13T05:02:22.675Z,14.90
2018-06-13T05:04:50.240Z,15.10
2018-06-13T05:07:17.828Z,15.20
2018-06-13T05:09:45.425Z,15.30
2018-06-13T05:12:13.050Z,15.20
2018-06-13T05:14:40.647Z,15.20
2018-06-13T05:17:08.239Z,15.20
2018-06-13T05:19:35.796Z,15.30
2018-06-13T05:22:03.425Z,15.30
2018-06-13T05:24:30.984Z,15.30
2018-06-13T05:26:58.570Z,15.20
2018-06-13T05:29:26.191Z,15.30
2018-06-13T05:31:53.785Z,15.50
2018-06-13T05:34:21.411Z,15.20
2018-06-13T05:36:49.018Z,15.20
2018-06-13T05:39:16.584Z,15.10
2018-06-13T05:41:44.201Z,15.10
2018-06-13T05:44:11.773Z,15.10
2018-06-13T05:46:39.356Z,15.10
2018-06-13T05:49:06.921Z,15.20
2018-06-13T05:51:34.508Z,15.30
2018-06-13T05:54:02.068Z,15.20
2018-06-13T05:56:29.692Z,15.20
2018-06-13T05:58:57.304Z,15.20
2018-06-13T06:01:24.963Z,15.30
2018-06-13T06:03:52.552Z,15.30
2018-06-13T06:06:20.136Z,15.30
2018-06-13T06:08:47.729Z,15.20
2018-06-13T06:11:15.320Z,15.10
2018-06-13T06:13:42.927Z,15.00
2018-06-13T06:16:10.528Z,15.00
2018-06-13T06:18:38.133Z,14.90
2018-06-13T06:21:05.793Z,14.80
2018-06-13T06:23:33.424Z,14.80
2018-06-13T06:26:00.977Z,14.80
2018-06-13T06:28:28.565Z,14.60
2018-06-13T06:30:56.165Z,14.50
2018-06-13T06:33:23.789Z,14.30
2018-06-13T06:35:51.396Z,14.30
2018-06-13T06:38:18.966Z,14.20
2018-06-13T06:40:46.581Z,14.20
2018-06-13T06:43:14.179Z,14.20
2018-06-13T06:45:41.747Z,14.20
2018-06-13T06:48:10.644Z,14.20
2018-06-13T06:50:38.244Z,14.30
2018-06-13T06:53:05.895Z,14.20
2018-06-13T06:55:33.536Z,14.30
2018-06-13T06:58:01.113Z,14.30
2018-06-13T07:00:28.693Z,14.30
2018-06-13T07:02:56.268Z,14.30
2018-06-13T07:05:23.829Z,14.20
2018-06-13T07:07:51.472Z,14.20
2018-06-13T07:10:19.040Z,14.20
2018-06-13T07:12:46.640Z,14.10
2018-06-13T07:17:41.724Z,14.20
2018-06-13T07:20:09.316Z,14.20
2018-06-13T07:22:36.906Z,14.30
2018-06-13T07:25:04.489Z,14.30
2018-06-13T07:27:32.141Z,14.30
2018-06-13T07:29:59.728Z,14.20
2018-06-13T07:32:27.440Z,14.30
2018-06-13T07:34:55.037Z,14.00
2018-06-13T07:37:22.645Z,13.90
2018-06-13T07:39:50.241Z,13.90
2018-06-13T07:42:17.844Z,13.80
2018-06-13T07:44:45.407Z,13.70
2018-06-13T07:47:12.981Z,13.50
2018-06-13T07:49:40.585Z,13.30
2018-06-13T07:52:08.181Z,13.30
2018-06-13T07:54:35.790Z,13.30
2018-06-13T07:57:03.379Z,13.30
2018-06-13T07:59:30.972Z,13.20
2018-06-13T08:01:58.533Z,13.10
2018-06-13T08:04:26.120Z,13.10
2018-06-13T08:06:53.712Z,13.20
2018-06-13T08:09:21.353Z,13.10
2018-06-13T08:11:48.935Z,13.20
2018-06-13T08:14:17.545Z,13.40
2018-06-13T08:16:45.163Z,13.30
2018-06-13T08:19:12.740Z,13.20
2018-06-13T08:21:40.344Z,13.10
2018-06-13T08:24:07.905Z,13.10
2018-06-13T08:26:35.513Z,13.10
2018-06-13T08:29:03.128Z,13.20
2018-06-13T08:31:30.745Z,13.30
2018-06-13T08:33:58.313Z,13.50
2018-06-13T08:36:25.893Z,13.50
2018-06-13T08:38:53.477Z,13.60
2018-06-13T08:41:21.068Z,13.60
2018-06-13T08:43:48.685Z,13.60
2018-06-13T08:46:16.264Z,13.70
2018-06-13T08:48:44.125Z,13.60
2018-06-13T08:53:39.201Z,13.90
2018-06-13T08:56:06.769Z,13.90
2018-06-13T08:58:34.348Z,13.90
2018-06-13T09:01:01.919Z,13.90
2018-06-13T09:03:29.517Z,13.90
2018-06-13T09:05:58.141Z,14.00
2018-06-13T09:08:25.728Z,13.90
2018-06-13T09:10:53.293Z,14.00
2018-06-13T09:13:20.999Z,14.00
2018-06-13T09:15:49.600Z,14.10
2018-06-13T09:18:17.221Z,14.10
2018-06-13T09:20:44.809Z,14.00
2018-06-13T09:23:12.398Z,14.00
2018-06-13T09:25:39.988Z,13.90
2018-06-13T09:28:07.622Z,13.80
2018-06-13T09:30:35.205Z,13.80
2018-06-13T09:33:02.787Z,13.70
2018-06-13T09:35:30.429Z,13.70
2018-06-13T09:37:58.096Z,13.60
2018-06-13T09:40:25.732Z,13.60
2018-06-13T09:42:53.324Z,13.60
2018-06-13T09:45:20.948Z,13.60
2018-06-13T09:47:48.580Z,13.70
2018-06-13T09:50:16.141Z,13.70
2018-06-13T09:52:43.713Z,13.70
2018-06-13T09:55:11.345Z,13.70
2018-06-13T09:57:39.053Z,13.70
2018-06-13T10:01:14.076Z,13.70
2018-06-13T10:03:41.696Z,13.60
2018-06-13T10:06:09.285Z,13.50
2018-06-13T10:08:36.908Z,13.60
2018-06-13T10:11:04.492Z,13.70
2018-06-13T10:13:32.061Z,13.70
2018-06-13T10:15:59.678Z,13.70
2018-06-13T10:18:27.344Z,13.70
2018-06-13T10:20:54.965Z,13.60
2018-06-13T10:23:22.598Z,13.50
2018-06-13T10:25:50.197Z,13.50
2018-06-13T10:28:17.819Z,13.40
2018-06-13T10:30:45.379Z,13.30
2018-06-13T10:33:12.955Z,13.30
2018-06-13T10:35:40.549Z,13.20
2018-06-13T10:38:08.136Z,13.20
2018-06-13T10:40:35.731Z,13.20
2018-06-13T10:43:03.348Z,13.10
2018-06-13T10:45:30.968Z,13.20
2018-06-13T10:47:58.544Z,13.10
2018-06-13T10:50:26.141Z,13.20
2018-06-13T10:52:53.804Z,13.30
2018-06-13T10:55:21.429Z,13.20
2018-06-13T10:57:48.992Z,13.30
2018-06-13T11:00:16.625Z,13.30
2018-06-13T11:02:44.204Z,13.20
2018-06-13T11:05:11.797Z,13.20
2018-06-13T11:07:39.379Z,13.30
2018-06-13T11:10:06.992Z,13.40
2018-06-13T11:12:34.577Z,13.40
2018-06-13T11:15:02.173Z,13.50
2018-06-13T11:17:29.736Z,13.60
2018-06-13T11:19:57.302Z,13.30
2018-06-13T11:22:24.952Z,13.30
2018-06-13T11:24:52.552Z,13.40
2018-06-13T11:27:20.146Z,13.20
2018-06-13T11:29:47.739Z,13.00
2018-06-13T11:32:15.302Z,12.90
2018-06-13T11:34:42.904Z,12.90
2018-06-13T11:37:10.472Z,12.90
2018-06-13T11:39:38.061Z,12.90
2018-06-13T11:42:05.694Z,13.00
2018-06-13T11:44:33.249Z,13.00
2018-06-13T11:47:00.862Z,13.00
2018-06-13T11:49:28.452Z,13.00
2018-06-13T11:51:56.038Z,12.80
2018-06-13T11:54:23.634Z,12.80
2018-06-13T11:56:52.320Z,12.70
2018-06-13T11:59:19.897Z,12.60
2018-06-13T12:01:47.553Z,12.60
2018-06-13T12:04:15.141Z,12.70
2018-06-13T12:06:42.752Z,12.70
2018-06-13T12:09:10.321Z,12.60
2018-06-13T12:11:37.934Z,12.70
2018-06-13T12:14:05.594Z,12.80
2018-06-13T12:16:33.208Z,12.90
2018-06-13T12:19:00.776Z,12.80
2018-06-13T12:21:29.316Z,12.80
2018-06-13T12:26:24.383Z,13.00
2018-06-13T12:28:52.003Z,12.90
2018-06-13T12:31:19.609Z,12.80
2018-06-13T12:33:47.168Z,12.80
2018-06-13T12:36:14.767Z,12.80
2018-06-13T12:38:42.436Z,12.60
2018-06-13T12:41:10.054Z,12.60
2018-06-13T12:43:37.634Z,12.60
2018-06-13T12:46:05.219Z,12.70
2018-06-13T12:48:32.825Z,12.60
2018-06-13T12:51:00.432Z,12.60
2018-06-13T12:53:28.004Z,12.60
2018-06-13T12:55:55.632Z,12.70
2018-06-13T12:58:23.282Z,12.60
2018-06-13T13:00:50.856Z,12.70
2018-06-13T13:03:18.493Z,12.80
2018-06-13T13:05:46.089Z,12.90
2018-06-13T13:08:13.717Z,12.90
2018-06-13T13:10:41.314Z,12.90
2018-06-13T13:13:08.884Z,12.90
2018-06-13T13:15:37.528Z,12.80
2018-06-13T13:18:05.123Z,12.80
2018-06-13T13:20:32.692Z,13.10
2018-06-13T13:23:00.280Z,12.90
2018-06-13T13:25:27.906Z,13.00
2018-06-13T13:27:55.485Z,13.00
2018-06-13T13:30:23.099Z,13.00
2018-06-13T13:32:50.793Z,13.10
2018-06-13T13:35:18.509Z,13.20
2018-06-13T13:37:46.081Z,13.40
2018-06-13T13:40:13.697Z,13.40
2018-06-13T13:42:41.972Z,13.40
2018-06-13T13:45:10.532Z,13.70
2018-06-13T13:47:39.172Z,13.50
2018-06-13T13:50:06.756Z,13.30
2018-06-13T13:52:34.390Z,13.30
2018-06-13T13:55:02.020Z,13.30
2018-06-13T13:57:30.577Z,13.20
2018-06-13T13:59:58.312Z,13.20
2018-06-13T14:02:26.605Z,13.30
2018-06-13T14:04:54.168Z,13.30
2018-06-13T14:07:21.772Z,13.10
2018-06-13T14:09:49.353Z,13.00
2018-06-13T14:12:16.990Z,13.00
2018-06-13T14:14:44.528Z,12.90
2018-06-13T14:19:39.601Z,13.00
2018-06-13T14:22:07.270Z,13.10
2018-06-13T14:24:34.849Z,13.10
2018-06-13T14:27:02.409Z,12.90
2018-06-13T14:29:29.979Z,12.90
2018-06-13T14:31:57.575Z,12.90
2018-06-13T14:34:25.162Z,12.70
2018-06-13T14:36:52.749Z,12.80
2018-06-13T14:39:20.308Z,12.80
2018-06-13T14:41:47.940Z,12.80
2018-06-13T14:44:15.519Z,12.80
2018-06-13T14:46:43.169Z,12.80
2018-06-13T14:49:10.777Z,12.60
2018-06-13T14:51:38.348Z,12.80
2018-06-13T14:54:05.993Z,12.90
2018-06-13T14:56:34.205Z,12.90
2018-06-13T14:59:02.289Z,12.90
2018-06-13T15:01:30.162Z,12.90
2018-06-13T15:03:57.780Z,13.00
2018-06-13T15:06:25.849Z,13.00
2018-06-13T15:08:55.981Z,12.90
2018-06-13T15:11:23.689Z,12.90
2018-06-13T15:13:51.260Z,12.80
2018-06-13T15:16:19.804Z,12.70
2018-06-13T15:18:48.053Z,12.50
2018-06-13T15:21:15.857Z,12.50
2018-06-13T15:23:43.433Z,12.40
2018-06-13T15:26:11.037Z,12.50
2018-06-13T15:28:38.657Z,12.50
2018-06-13T15:31:06.397Z,12.60
2018-06-13T15:33:33.984Z,12.60
2018-06-13T15:36:01.565Z,12.60
2018-06-13T15:38:29.163Z,12.80
2018-06-13T15:40:58.204Z,12.70
2018-06-13T15:43:25.832Z,12.80
2018-06-13T15:45:53.483Z,12.80
2018-06-13T15:48:21.044Z,12.60
2018-06-13T15:50:49.038Z,12.60
2018-06-13T15:53:16.656Z,12.40
2018-06-13T15:55:44.291Z,12.50
2018-06-13T15:58:11.897Z,12.40
2018-06-13T16:00:39.497Z,12.50
2018-06-13T16:03:07.561Z,12.50
2018-06-13T16:05:35.296Z,12.40
2018-06-13T16:08:02.926Z,12.30
2018-06-13T16:10:30.524Z,12.20
2018-06-13T16:12:58.108Z,12.10
2018-06-13T16:15:25.744Z,12.30
2018-06-13T16:17:53.352Z,12.10
2018-06-13T16:20:20.950Z,12.10
2018-06-13T16:22:48.532Z,12.20
2018-06-13T16:25:16.084Z,12.30
2018-06-13T16:27:43.685Z,12.20
2018-06-13T16:30:11.268Z,12.30
2018-06-13T16:32:38.891Z,12.40
2018-06-13T16:35:06.623Z,12.50
2018-06-13T16:37:34.205Z,12.40
2018-06-13T16:40:01.845Z,12.30
2018-06-13T16:42:29.451Z,12.30
2018-06-13T16:44:57.208Z,12.30
2018-06-13T16:47:24.925Z,12.30
2018-06-13T16:49:52.489Z,12.30
2018-06-13T16:52:31.452Z,12.30
2018-06-13T16:55:24.255Z,12.20
2018-06-13T16:57:52.092Z,12.30
2018-06-13T17:02:49.929Z,12.20
2018-06-13T17:05:17.711Z,12.20
2018-06-13T17:07:45.726Z,12.10
2018-06-13T17:10:13.701Z,12.20
2018-06-13T17:12:41.821Z,12.10
2018-06-13T17:15:09.470Z,12.10
2018-06-13T17:17:37.090Z,12.40
2018-06-13T17:20:04.692Z,12.50
2018-06-13T17:22:32.288Z,12.60
2018-06-13T17:24:59.898Z,12.60
2018-06-13T17:27:28.189Z,12.60
2018-06-13T17:29:56.069Z,12.60
2018-06-13T17:32:25.369Z,12.80
2018-06-13T17:34:54.041Z,12.50
2018-06-13T17:37:21.821Z,12.60
2018-06-13T17:39:49.692Z,12.70
2018-06-13T17:42:17.353Z,12.90
2018-06-13T17:44:45.905Z,12.60
2018-06-13T17:47:13.696Z,12.60
2018-06-13T17:49:41.864Z,12.60
2018-06-13T17:52:09.656Z,12.60
2018-06-13T17:54:37.269Z,12.60
2018-06-13T17:57:05.176Z,12.50
2018-06-13T17:59:33.724Z,12.50
2018-06-13T18:02:02.134Z,12.50
2018-06-13T18:04:29.709Z,12.30
2018-06-13T18:06:57.297Z,12.20
2018-06-13T18:09:24.862Z,12.20
2018-06-13T18:11:52.468Z,12.30
2018-06-13T18:14:20.049Z,12.30
2018-06-13T18:16:47.861Z,12.30
2018-06-13T18:19:15.461Z,12.30
2018-06-13T18:21:43.072Z,12.20
2018-06-13T18:24:11.177Z,12.20
2018-06-13T18:26:40.368Z,12.20
2018-06-13T18:29:08.560Z,12.20
2018-06-13T18:31:36.133Z,12.30
2018-06-13T18:34:05.894Z,12.30
2018-06-13T18:36:33.444Z,12.30
2018-06-13T18:39:01.955Z,12.30
2018-06-13T18:41:29.649Z,12.30
2018-06-13T18:43:57.243Z,12.30
2018-06-13T18:46:24.821Z,12.20
2018-06-13T18:48:52.377Z,12.40
2018-06-13T18:51:19.980Z,12.40
2018-06-13T18:53:47.597Z,12.30
2018-06-13T18:56:15.205Z,12.30
2018-06-13T18:58:42.848Z,12.30
2018-06-13T19:01:10.485Z,12.40
2018-06-13T19:03:38.057Z,12.40
2018-06-13T19:06:06.649Z,12.30
2018-06-13T19:08:34.300Z,12.40
2018-06-13T19:11:01.873Z,12.40
2018-06-13T19:13:29.460Z,12.30
2018-06-13T19:15:57.059Z,12.30
2018-06-13T19:18:24.615Z,12.30
2018-06-13T19:20:52.257Z,12.30
2018-06-13T19:23:19.845Z,12.20
2018-06-13T19:25:47.411Z,12.30
2018-06-13T19:28:14.993Z,12.30
2018-06-13T19:30:42.628Z,12.20
2018-06-13T19:33:10.412Z,12.10
2018-06-13T19:35:37.980Z,12.10
2018-06-13T19:38:05.546Z,12.20
2018-06-13T19:40:33.464Z,12.20
2018-06-13T19:43:01.059Z,12.30
2018-06-13T19:45:28.656Z,12.40
2018-06-13T19:48:01.965Z,12.20
2018-06-13T19:50:29.889Z,12.10
2018-06-13T19:53:03.279Z,12.10
2018-06-13T19:55:37.589Z,12.00
2018-06-13T19:58:05.184Z,12.00
2018-06-13T20:00:33.449Z,12.00
2018-06-13T20:03:06.797Z,12.00
2018-06-13T20:05:41.672Z,12.00
2018-06-13T20:08:09.264Z,12.00
2018-06-13T20:10:36.868Z,12.00
2018-06-13T20:13:10.217Z,12.10
2018-06-13T20:15:43.581Z,12.00
2018-06-13T20:18:16.784Z,11.90
2018-06-13T20:20:44.459Z,11.80
2018-06-13T20:23:12.745Z,11.80
2018-06-13T20:25:45.885Z,11.80
2018-06-13T20:28:19.108Z,11.90
2018-06-13T20:30:52.468Z,12.00
2018-06-13T20:33:20.060Z,11.90
2018-06-13T20:38:15.549Z,11.90
2018-06-13T20:40:43.149Z,11.90
2018-06-13T20:43:10.716Z,11.90
2018-06-13T20:45:38.351Z,11.90
2018-06-13T20:48:05.941Z,11.90
2018-06-13T20:50:33.564Z,11.80
2018-06-13T20:53:01.169Z,11.80
2018-06-13T20:55:28.783Z,11.90
2018-06-13T20:57:56.377Z,11.90
2018-06-13T21:00:23.988Z,11.90
2018-06-13T21:02:51.592Z,11.90
2018-06-13T21:05:19.797Z,11.80
2018-06-13T21:07:47.413Z,11.80
2018-06-13T21:10:15.023Z,11.80
2018-06-13T21:12:43.585Z,11.80
2018-06-13T21:15:12.169Z,11.80
2018-06-13T21:17:39.762Z,11.80
2018-06-13T21:20:07.361Z,11.80
2018-06-13T21:22:34.921Z,11.90
2018-06-13T21:25:02.564Z,11.90
2018-06-13T21:27:30.144Z,11.90
2018-06-13T21:29:57.761Z,12.00
2018-06-13T21:32:25.341Z,12.00
2018-06-13T21:34:53.730Z,12.00
2018-06-13T21:37:21.343Z,12.00
2018-06-13T21:39:48.952Z,12.00
2018-06-13T21:42:16.545Z,12.00
2018-06-13T21:44:44.108Z,11.90
2018-06-13T21:47:11.694Z,12.00
2018-06-13T21:49:39.313Z,11.90
2018-06-13T21:52:06.907Z,11.90
2018-06-13T21:54:34.452Z,11.90
2018-06-13T21:57:02.021Z,11.80
2018-06-13T21:59:29.908Z,11.90
2018-06-13T22:01:57.498Z,12.00
2018-06-13T22:04:25.080Z,12.20
2018-06-13T22:06:52.788Z,12.00
2018-06-13T22:09:20.380Z,12.00
2018-06-13T22:11:53.905Z,12.00
2018-06-13T22:14:22.925Z,12.00
2018-06-13T22:16:51.086Z,12.00
2018-06-13T22:19:18.856Z,12.10
2018-06-13T22:21:46.604Z,12.10
2018-06-13T22:24:14.197Z,12.20
2018-06-13T22:26:41.756Z,12.40
2018-06-13T22:29:09.429Z,12.30
2018-06-13T22:31:37.144Z,12.20
2018-06-13T22:34:04.769Z,12.10
2018-06-13T22:36:32.342Z,12.10
2018-06-13T22:38:59.949Z,12.10
2018-06-13T22:41:28.040Z,12.20
2018-06-13T22:43:55.881Z,12.10
2018-06-13T22:46:23.456Z,12.20
2018-06-13T22:48:51.068Z,12.20
2018-06-13T22:51:19.342Z,12.10
2018-06-13T22:53:46.981Z,12.00
2018-06-13T22:56:14.589Z,12.00
2018-06-13T22:58:42.176Z,12.00
2018-06-13T23:01:10.848Z,12.20
2018-06-13T23:03:38.425Z,12.20
2018-06-13T23:06:07.196Z,12.10
2018-06-13T23:08:35.582Z,12.00
2018-06-13T23:11:03.268Z,12.00
2018-06-13T23:15:58.397Z,12.10
2018-06-13T23:18:26.848Z,12.00
2018-06-13T23:20:54.453Z,12.10
2018-06-13T23:23:22.052Z,12.10
2018-06-13T23:25:51.328Z,12.10
2018-06-13T23:28:19.081Z,12.10
2018-06-13T23:30:46.713Z,12.00
2018-06-13T23:33:14.301Z,12.10
2018-06-13T23:35:41.946Z,12.00
2018-06-13T23:38:09.661Z,12.00
2018-06-13T23:40:37.418Z,12.00
2018-06-13T23:43:05.264Z,12.00
2018-06-13T23:45:32.832Z,11.90
2018-06-13T23:48:00.501Z,11.90
2018-06-13T23:50:28.214Z,11.90
2018-06-13T23:52:55.841Z,11.90
2018-06-13T23:55:23.437Z,12.00
2018-06-13T23:57:51.036Z,11.90
